Meteo4 di Emilio Bellavite Il primo osservatorio Meteo di Verona  
 
sabato 25 marzo 2017
 
 
dati in tempo reale
Di seguito i dati in tempo reale delle stazioni on line della rete di Meteo4. Cliccando sul link della stazione, ove presente, si accederà al sito web personale.
Stazioni online
Località Giorno Ora Temp. Umid. Relat. Dew Point Press. Atm. Velocità Vento Direz. Vento Precip. Temp.
Min
Temp.
Max
Abano (PD) 25/03/17 14.15 23.4 °C 47 % 11.5 °C 1017.8 hPa 1.6 Km/h E 0.0 mm  10.6 °C 23.4 °C
Acquapendente (VT) 25/03/17 14.12 21.4 °C 47 % 9.6 °C 1014.2 hPa 0.0 Km/h WSW 0.0 mm  4.6 °C 21.9 °C
Acquaviva delle Fonti (BA) 25/03/17 14.13 21.8 °C 46 % 9.6 °C 1019.4 hPa 8.0 Km/h NNE 0.0 mm  7.8 °C 21.8 °C
Ala (TN) 25/03/17 14.13 20.7 °C 57 % 11.9 °C 1017.1 hPa 13.0 Km/h SW 0.0 mm  9.9 °C 20.1 °C
Alleghe (BL) 25/03/17 14.13 18.1 °C 40 % 4.3 °C 1005.7 hPa 3.9 Km/h SSW 0.0 mm  4.9 °C 18.4 °C
Alleghe Lago (BL) 25/03/17 14.14 15.1 °C 52 % 5.3 °C 1010.7 hPa 2.8 Km/h E 0.0 mm  4.3 °C 16.1 °C
Ancona (AN) 25/03/17 14.15 17.5 °C 63 % 10.4 °C 1020.6 hPa 4.8 Km/h W 0.0 mm  10.2 °C 17.6 °C
Arenzano (GE) 25/03/17 14.13 19.3 °C 46 % 7.4 °C 1018.4 hPa 14.5 Km/h SSE 0.0 mm  14.2 °C 20.7 °C
Arquà Polesine (RO) 25/03/17 14.14 23.0 °C 38 % 7.9 °C 1014.5 hPa 1.1 Km/h SE 0.0 mm  8.2 °C 23.2 °C
Arzignano loc. Castello (VI) 25/03/17 13.45 23.1 °C 51 % 12.4 °C 1019.3 hPa 0.0 Km/h SE 0.0 mm  11.1 °C 23.3 °C
Arzignano Pugnello (VI) 25/03/17 14.13 20.3 °C 58 % 11.7 °C 1017.4 hPa 2.0 Km/h E 0.0 mm  10.2 °C 20.4 °C
Arzignano San Bortolo (VI) 25/03/17 14.04 20.3 °C 54 % 10.4 °C 1015.8 hPa 4.8 Km/h E 0.0 mm  12.8 °C 20.6 °C
Arzignano Tezze (VI) 25/03/17 14.00 21.8 °C 53 % 11.8 °C 1018.8 hPa 3.2 Km/h ENE 0.0 mm  7.9 °C 21.9 °C
Asiago Rifugio Val Formica (VI) 25/03/17 14.04 9.9 °C 63 % 3.2 °C 1020.9 hPa 0.0 Km/h SSE 0.0 mm  0.9 °C 10.5 °C
Avenza-Carrara (MS) 25/03/17 14.15 21.1 °C 49 % 9.9 °C 1020.3 hPa 0.0 Km/h N 0.0 mm  10.7 °C 22.9 °C
Avio (TN) 25/03/17 14.14 23.8 °C 48 % 12.1 °C 1017.0 hPa 6.5 Km/h NW 0.0 mm  11.6 °C 23.8 °C
Badia Calavena loc. San Valentino (VR) 25/03/17 14.13 16.3 °C 59 % 8.2 °C 1017.1 hPa 8.0 Km/h SSE 0.0 mm  9.9 °C 16.3 °C
Barcellona P.G. Centro (ME) 25/03/17 14.13 21.2 °C 57 % 12.4 °C 1019.7 hPa 11.3 Km/h WNW 0.0 mm  12.4 °C 21.6 °C
Barcellona Pozzo di Gotto (ME) 25/03/17 14.13 20.2 °C 62 % 12.7 °C 1019.9 hPa 0.0 Km/h N 0.0 mm  13.2 °C 20.3 °C
Bassano del Grappa (VI) 25/03/17 07.50 14.9 °C 67 % 8.9 °C 1009.0 hPa 4.8 Km/h ENE 0.0 mm  11.8 °C 15.1 °C
Bellaria Igea Marina (RN) 25/03/17 14.13 15.3 °C 85 % 12.8 °C 1019.0 hPa 11.3 Km/h ESE 0.0 mm  10.1 °C 17.4 °C
Bellaria Igea Marina2 (RN) 25/03/17 14.13 15.1 °C 88 % 13.1 °C 1018.9 hPa 11.3 Km/h E 0.0 mm  10.2 °C 18.1 °C
Bellaria Igea Marina3 (RN) 25/03/17 14.13 17.2 °C 76 % 12.9 °C 1018.6 hPa 18.7 Km/h ENE 0.0 mm  9.0 °C 18.4 °C
Belluno Castion (BL) 25/03/17 14.15 21.1 °C 50 % 10.2 °C 1017.6 hPa 1.6 Km/h WSW 0.0 mm  6.2 °C 21.3 °C
Besenello (TN) 25/03/17 14.14 22.7 °C 49 % 11.5 °C 1018.2 hPa 2.6 Km/h E 0.0 mm  9.7 °C 22.7 °C
Besozzo (VA) 25/03/17 14.18 20.7 °C 53 % 10.8 °C 1018.1 hPa 3.2 Km/h WSW 0.2 mm  4.3 °C 20.7 °C
Biasì (OT) 25/03/17 14.14 12.9 °C 76 % 8.8 °C 1018.8 hPa 1.3 Km/h SSW 0.0 mm  12.9 °C 18.1 °C
Bisignano (CS) 25/03/17 14.13 23.7 °C 28 % 4.1 °C 1020.1 hPa 13.6 Km/h N 0.0 mm  9.1 °C 24.3 °C
Bitti (NU) 25/03/17 14.12 10.1 °C 85 % 7.7 °C 1019.2 hPa 23.0 Km/h SSE 0.0 mm  9.7 °C 12.7 °C
Bolognano di Arco (TN) 25/03/17 14.14 19.8 °C 60 % 11.8 °C 1019.2 hPa 8.3 Km/h S 0.0 mm  9.1 °C 20.3 °C
Bonorva (SS) 25/03/17 14.10 9.7 °C 94 % 8.7 °C 1019.6 hPa 8.0 Km/h SW 4.0 mm  9.1 °C 13.6 °C
Borgo Valsugana (TN) 25/03/17 14.02 20.3 °C 45 % 8.0 °C 1020.9 hPa 5.8 Km/h NNE 0.0 mm  -573.3 °C 20.6 °C
Borgofranco d'Ivrea (TO) 25/03/17 14.14 18.6 °C 65 % 11.9 °C 1018.9 hPa 3.2 Km/h S 0.0 mm  8.2 °C 18.9 °C
Borore (NU) 25/03/17 14.14 10.2 °C 90 % 8.7 °C 1019.8 hPa 10.6 Km/h WSW 3.6 mm  9.3 °C 13.0 °C
Brebbia (VA) 25/03/17 14.00 20.1 °C 57 % 11.3 °C 1019.2 hPa 4.8 Km/h W 0.0 mm  5.7 °C 20.1 °C
Bresega (PD) 25/03/17 14.13 0.0 °C 0 % 0.0 °C 1018.7 hPa 10.0 Km/h E 0.0 mm  0.0 °C 0.0 °C
Brolo c/da Parrazzà (ME) 25/03/17 14.15 19.6 °C 54 % 10.0 °C 1020.1 hPa 6.0 Km/h NNW 0.0 mm  14.2 °C 20.2 °C
Brugine2 (PD) 25/03/17 14.11 21.0 °C 59 % 12.7 °C 1019.3 hPa 0.4 Km/h NNW 0.0 mm  7.4 °C 21.1 °C
Buccheri (SR) 25/03/17 13.59 17.1 °C 61 % 9.5 °C 1017.0 hPa 0.0 Km/h SW 0.0 mm  7.9 °C 17.6 °C
Budoia (PN) 25/03/17 14.01 20.9 °C 45 % 8.6 °C 1019.4 hPa 3.2 Km/h SSE 0.0 mm  11.1 °C 21.1 °C
Ca' Gallo (PU) 25/03/17 14.03 20.1 °C 62 % 12.6 °C 1019.2 hPa 19.1 Km/h E 0.0 mm  7.4 °C 21.2 °C
Calcinato (BS) 25/03/17 14.14 20.1 °C 57 % 11.3 °C 1021.2 hPa 19.3 Km/h S 0.0 mm  7.7 °C 20.3 °C
Calliano (TN) 25/03/17 14.13 22.3 °C 51 % 11.6 °C 1017.1 hPa 6.4 Km/h SSE 0.0 mm  8.7 °C 22.4 °C
Caltabellotta (AG) 25/03/17 14.10 12.7 °C 85 % 10.2 °C 1020.7 hPa 0.0 Km/h S 0.0 mm  9.4 °C 14.0 °C
Cammarata (AG) 25/03/17 14.14 16.4 °C 62 % 9.1 °C 1019.6 hPa 13.3 Km/h E 0.3 mm  9.8 °C 16.8 °C
Camposampiero (PD) 25/03/17 14.17 21.4 °C 17 % -4.7 °C 1019.0 hPa 5.6 Km/h E 0.0 mm  21.2 °C 21.4 °C
Capodimonte (VT) 25/03/17 14.10 19.1 °C 58 % 10.6 °C 1020.2 hPa 11.3 Km/h W 0.2 mm  9.4 °C 20.3 °C
Caprarola Centro Storico (VT) 25/03/17 14.14 20.3 °C 49 % 9.2 °C 1020.0 hPa 6.5 Km/h ENE 0.0 mm  12.0 °C 20.8 °C
Caprino (VR) 25/03/17 14.13 20.9 °C 61 % 13.1 °C 1017.0 hPa 0.0 Km/h SW 0.0 mm  10.2 °C 21.0 °C
Carceri (PD) 25/03/17 13.46 22.0 °C 49 % 10.6 °C 1018.8 hPa 4.8 Km/h SE 0.0 mm  7.2 °C 22.0 °C
Carmignano loc. Seano (PO) 25/03/17 14.14 23.9 °C 41 % 9.8 °C 1017.4 hPa 0.6 Km/h NNW 0.0 mm  12.3 °C 24.9 °C
Carpi (MO) 25/03/17 14.14 22.1 °C 52 % 11.8 °C 1017.9 hPa 6.1 Km/h ENE 0.0 mm  9.2 °C 22.1 °C
Cartigliano (VI) 25/03/17 14.13 23.4 °C 44 % 10.5 °C 1018.2 hPa 4.6 Km/h E 0.0 mm  9.3 °C 23.5 °C
Casotto (VI) 25/03/17 13.57 20.1 °C 53 % 10.0 °C 1017.5 hPa 12.9 Km/h NW 0.0 mm  8.6 °C 20.1 °C
Cassano Magnago (VA) 25/03/17 14.01 21.8 °C 49 % 10.6 °C 1018.5 hPa 4.8 Km/h W 0.0 mm  7.2 °C 21.8 °C
Castel d'Azzano (VR) 25/03/17 14.20 21.8 °C 49 % 10.6 °C 854.9 hPa 1.6 Km/h ESE 0.0 mm  7.9 °C 21.9 °C
Castelfranco Veneto (TV) 25/03/17 14.15 22.5 °C 45 % 10.0 °C 1019.2 hPa 3.2 Km/h ESE 0.0 mm  9.2 °C 22.6 °C
Castelfranco Veneto2 (TV) 25/03/17 13.50 21.8 °C 47 % 10.0 °C 1021.2 hPa 3.2 Km/h ESE 0.0 mm  -573.3 °C 21.8 °C
Castelgomberto (VI) 25/03/17 06.01 10.8 °C 88 % 8.9 °C 1021.2 hPa 9.5 Km/h NNW 0.0 mm  10.4 °C 11.9 °C
Castelnuovo V.C. (PI) 25/03/17 14.12 17.4 °C 62 % 10.1 °C 1018.0 hPa 3.0 Km/h WSW 0.0 mm  7.1 °C 19.8 °C
Castiglione del Lago (PG) 25/03/17 14.10 22.8 °C 34 % 6.1 °C 1020.9 hPa 6.4 Km/h ESE 0.0 mm  5.7 °C 23.1 °C
Castiglione della Pescaia (GR) 25/03/17 14.14 21.5 °C 59 % 13.1 °C 1019.0 hPa 10.1 Km/h SSE 0.0 mm  5.4 °C 22.5 °C
Castiglione della Pescaia Vaticino (GR) 25/03/17 14.14 20.4 °C 52 % 10.2 °C 1018.4 hPa 0.0 Km/h SSW 0.0 mm  9.6 °C 21.8 °C
Cavaria con Premezzo (VA) 25/03/17 14.14 19.7 °C 53 % 10.0 °C 1018.1 hPa 0.0 Km/h SSE 0.2 mm  7.6 °C 19.8 °C
Cavazzale (VI) 25/03/17 09.00 17.8 °C 65 % 11.2 °C 1022.3 hPa 0.0 Km/h --- 0.0 mm  9.7 °C 17.9 °C
Cefalù (PA) 25/03/17 14.14 19.0 °C 54 % 9.5 °C 1016.5 hPa 8.0 Km/h ENE 0.0 mm  13.5 °C 19.9 °C
Cerea (VR) 25/03/17 14.15 21.9 °C 52 % 11.6 °C 1018.9 hPa 4.8 Km/h E 0.0 mm  9.2 °C 22.0 °C
Chiusi (SI) 25/03/17 14.03 22.8 °C 37 % 7.3 °C 1018.5 hPa 1.6 Km/h ESE 0.0 mm  11.4 °C 22.9 °C
Cima Grappa (TV) 25/03/17 14.14 7.8 °C 85 % 5.5 °C 1022.0 hPa 8.2 Km/h SE 0.0 mm  5.4 °C 9.7 °C
Cismon del Grappa loc. Corlo (VI) 25/03/17 14.14 20.6 °C 44 % 7.9 °C 1019.7 hPa 8.3 Km/h SSW 0.0 mm  8.4 °C 21.1 °C
Cittadella (PD) 25/03/17 14.04 22.9 °C 48 % 11.3 °C 1018.2 hPa 3.7 Km/h NE 0.0 mm  11.9 °C 22.9 °C
Civita Castellana (VT) 25/03/17 14.14 21.2 °C 50 % 10.4 °C 1019.3 hPa 10.4 Km/h SSW 0.0 mm  6.8 °C 23.3 °C
Cogollo del Cengio (VI) 25/03/17 14.11 19.9 °C 32 % 2.7 °C 1018.3 hPa 13.4 Km/h S 0.0 mm  10.2 °C 20.0 °C
Colle del Piccolo San Bernardo La Thuile (AO) 25/03/17 13.54 1.1 °C 89 % -0.6 °C 1019.9 hPa 24.1 Km/h NNE 0.5 mm  -0.6 °C 1.2 °C
Colle S. Lucia Posalz (BL) 25/03/17 14.14 15.8 °C 37 % 1.1 °C 1027.3 hPa 7.0 Km/h N 0.0 mm  4.6 °C 15.9 °C
Cologna Veneta Sant'Andrea (VR) 25/03/17 14.15 22.0 °C 56 % 12.8 °C 1017.1 hPa 3.2 Km/h SE 0.0 mm  7.1 °C 22.0 °C
Colognola ai Colli (VR) 25/03/17 13.10 22.4 °C 51 % 11.8 °C 1019.4 hPa 8.0 Km/h N 0.0 mm  7.9 °C 22.4 °C
Contrada Dosso Gervasio (VR) 25/03/17 14.00 15.9 °C 73 % 10.6 °C 1018.4 hPa 5.0 Km/h SE 0.0 mm  9.3 °C 16.0 °C
Corrubio di S. Anna d'Alfaedo (VR) 25/03/17 14.15 15.2 °C 70 % 9.8 °C 1020.2 hPa 12.9 Km/h SSE 0.0 mm  9.9 °C 15.3 °C
Cosseria Lidora (SV) 25/03/17 14.00 16.3 °C 69 % 10.6 °C 1018.6 hPa 1.6 Km/h S 0.0 mm  7.2 °C 16.4 °C
Costa di Vittorio Veneto (TV) 25/03/17 14.05 21.3 °C 47 % 9.5 °C 1018.5 hPa 1.4 Km/h S 0.0 mm  11.8 °C 21.3 °C
Crespano del Grappa (TV) 22/03/17 00.56 11.3 °C 83 % 8.5 °C 1011.1 hPa 3.7 Km/h NNE 0.0 mm  11.1 °C 11.4 °C
Dorno (PV) 25/03/17 14.13 17.2 °C 78 % 13.3 °C 1019.3 hPa 1.9 Km/h SSE 0.2 mm  6.4 °C 17.3 °C
Dossobuono (VR) 25/03/17 14.14 21.4 °C 48 % 10.0 °C 1019.9 hPa 12.9 Km/h ESE 0.0 mm  7.5 °C 21.6 °C
Falzè di Piave (TV) 25/03/17 14.14 21.4 °C 43 % 8.3 °C 1020.1 hPa 3.0 Km/h --- 0.0 mm  7.1 °C 22.5 °C
Farra di Soligo (TV) 25/03/17 14.08 22.6 °C 46 % 10.3 °C 1018.3 hPa 0.0 Km/h N 0.0 mm  9.9 °C 23.5 °C
Favaro Veneto (VE) 25/03/17 14.10 20.7 °C 50 % 9.9 °C 1019.8 hPa 8.0 Km/h ESE 0.0 mm  9.3 °C 20.9 °C
Feltre Celarda (BL) 25/03/17 14.14 21.9 °C 43 % 8.7 °C 1016.1 hPa 5.2 Km/h SSW 0.0 mm  5.5 °C 22.0 °C
Ferrara di M.B. (VR) 25/03/17 13.50 13.2 °C 69 % 7.7 °C 1015.8 hPa 8.0 Km/h SSE 0.0 mm  4.6 °C 13.9 °C
Fiavè loc. Ballino (TN) 25/03/17 14.14 17.3 °C 45 % 5.3 °C 1023.5 hPa 7.2 Km/h NW 0.0 mm  6.6 °C 17.8 °C
Filo di Argenta (FE) 25/03/17 14.15 21.1 °C 59 % 12.8 °C 1019.5 hPa 8.7 Km/h E 0.0 mm  9.1 °C 21.7 °C
Fogliano Redipuglia (GO) 25/03/17 14.00 21.9 °C 33 % 4.9 °C 1018.8 hPa 9.0 Km/h S 0.0 mm  9.2 °C 22.1 °C
Foligno (PG) 25/03/17 14.10 23.1 °C 39 % 8.4 °C 1018.4 hPa 4.8 Km/h NW 0.0 mm  8.9 °C 23.2 °C
Fontanafredda (PN) 25/03/17 14.14 21.8 °C 45 % 9.3 °C 1018.7 hPa 2.8 Km/h ENE 0.0 mm  6.9 °C 22.1 °C
Gallio (VI) 25/03/17 14.05 12.4 °C 72 % 7.6 °C 1019.9 hPa 4.8 Km/h E 0.0 mm  4.8 °C 14.1 °C
Gardolo (TN) 25/03/17 14.14 22.5 °C 46 % 10.3 °C 1018.9 hPa 10.1 Km/h NNE 0.0 mm  7.7 °C 22.3 °C
Genova Albaro (GE) 25/03/17 14.14 20.3 °C 35 % 4.3 °C 1020.0 hPa 5.3 Km/h S 0.0 mm  13.6 °C 22.4 °C
Genova Erzelli (GE) 25/03/17 14.17 19.6 °C 46 % 7.6 °C 1017.7 hPa 8.0 Km/h N 0.0 mm  13.1 °C 21.4 °C
Giazza (VR) 25/03/17 08.25 7.8 °C 85 % 5.4 °C 1021.8 hPa 6.5 Km/h NNE 0.0 mm  6.8 °C 8.2 °C
Girifalco (CZ) 25/03/17 14.14 17.3 °C 61 % 9.7 °C 1019.3 hPa 8.0 Km/h SE 0.0 mm  13.4 °C 18.9 °C
Gorizia (GO) 25/03/17 14.13 21.1 °C 38 % 5.3 °C 1019.9 hPa 11.9 Km/h NE 0.0 mm  10.1 °C 21.4 °C
Gradisca d'Isonzo (GO) 25/03/17 14.14 22.2 °C 39 % 7.6 °C 1016.4 hPa 11.5 Km/h ENE 0.0 mm  -10.0 °C 22.7 °C
Iglesias (CI) 25/03/17 14.05 15.3 °C 65 % 8.8 °C 1022.2 hPa 16.3 Km/h WSW 2.3 mm  11.1 °C 15.3 °C
Isola d'Elba Marina di Campo (LI) 25/03/17 14.00 18.0 °C 81 % 14.7 °C 800.3 hPa 4.8 Km/h S 0.3 mm  7.4 °C 18.1 °C
Jesolo (VE) 25/03/17 10.45 15.4 °C 21 % -6.8 °C 1016.3 hPa 3.2 Km/h E 0.0 mm  11.4 °C 17.7 °C
Lavis (TN) 25/03/17 14.10 22.6 °C 47 % 10.6 °C 1017.7 hPa 13.0 Km/h ESE 0.0 mm  7.3 °C 22.7 °C
Laxolo (BG) 25/03/17 14.18 19.0 °C 53 % 9.2 °C 1015.1 hPa 0.0 Km/h E 0.0 mm  6.3 °C 19.4 °C
Legnago (VR) 25/03/17 14.10 21.0 °C 65 % 14.2 °C 1018.8 hPa 1.6 Km/h ENE 0.0 mm  8.9 °C 21.0 °C
Lesmo (MB) 25/03/17 14.15 19.9 °C 55 % 10.6 °C 1019.2 hPa 4.8 Km/h ENE 0.0 mm  4.4 °C 20.6 °C
Loano (SV) 25/03/17 14.15 16.8 °C 71 % 11.5 °C 1018.0 hPa 0.0 Km/h N 0.0 mm  16.7 °C 20.2 °C
Lugagnano (VR) 25/03/17 14.13 21.7 °C 53 % 11.7 °C 1017.7 hPa 6.5 Km/h WSW 0.0 mm  9.2 °C 21.7 °C
Magnano (BI) 25/03/17 14.14 16.3 °C 69 % 10.6 °C 1010.0 hPa 3.7 Km/h SW 0.0 mm  4.5 °C 16.6 °C
Malnate San Salvatore (VA) 25/03/17 14.08 20.1 °C 53 % 10.2 °C 1019.5 hPa 6.4 Km/h S 0.0 mm  7.1 °C 20.2 °C
Marano Vicentino2 (VI) 25/03/17 14.10 19.6 °C 57 % 10.8 °C 1018.6 hPa 0.0 Km/h SW 0.0 mm  8.7 °C 19.6 °C
Margone (TN) 25/03/17 14.10 14.7 °C 68 % 8.8 °C 1021.3 hPa 10.0 Km/h SSW 0.0 mm  7.1 °C 15.6 °C
Marostica Valle San Floriano (VI) 25/03/17 14.13 21.6 °C 47 % 9.4 °C 1020.3 hPa 3.0 Km/h WNW 0.0 mm  10.6 °C 21.7 °C
Marta (VT) 25/03/17 14.11 19.4 °C 60 % 11.4 °C 1017.9 hPa 8.7 Km/h SSW 0.0 mm  9.6 °C 21.0 °C
Martignano (TN) 25/03/17 14.15 21.1 °C 45 % 8.7 °C 1016.8 hPa 3.2 Km/h W 0.0 mm  9.2 °C 21.3 °C
Mascalucia (CT) 25/03/17 14.20 18.9 °C 47 % 7.4 °C 1021.0 hPa 0.0 Km/h N 0.0 mm  7.1 °C 19.2 °C
Masiera di Bagnacavallo (RA) 25/03/17 13.54 22.7 °C 62 % 15.0 °C 1017.8 hPa 5.9 Km/h ESE 0.0 mm  9.3 °C 22.7 °C
Massarosa (LU) 25/03/17 14.14 20.3 °C 49 % 9.2 °C 1006.6 hPa 3.6 Km/h ESE 0.0 mm  11.8 °C 24.6 °C
Massone di Arco (TN) 25/03/17 14.10 18.8 °C 61 % 11.1 °C 1018.4 hPa 7.0 Km/h SSE 0.0 mm  9.4 °C 19.4 °C
Mazzurega (VR) 25/03/17 14.07 20.4 °C 53 % 10.5 °C 1021.2 hPa 6.4 Km/h SE 0.0 mm  10.7 °C 21.9 °C
Merlara (PD) 25/03/17 14.15 20.6 °C 57 % 11.8 °C 1018.3 hPa 9.7 Km/h ESE 0.0 mm  7.0 °C 20.7 °C
Mezzana Bigli (PV) 25/03/17 14.10 16.4 °C 79 % 12.8 °C 1018.2 hPa 0.2 Km/h NNW 0.3 mm  6.4 °C 17.3 °C
Migliarino (FE) 24/03/17 23.15 12.8 °C 88 % 10.9 °C 1022.8 hPa 1.1 Km/h S 0.0 mm  9.5 °C 21.0 °C
Miglionico (MT) 25/03/17 14.10 20.5 °C 49 % 9.4 °C 1017.9 hPa 1.6 Km/h ESE 0.0 mm  11.8 °C 20.5 °C
Miola di Piné (TN) 25/03/17 14.10 17.1 °C 43 % 4.4 °C 1019.8 hPa 9.5 Km/h WSW 0.2 mm  5.2 °C 17.2 °C
Mirabella Imbaccari (CT) 25/03/17 14.16 17.5 °C 70 % 12.0 °C 1019.4 hPa 11.1 Km/h WSW 0.2 mm  7.0 °C 19.6 °C
Molina (VR) 23/03/17 19.38 9.7 °C 79 % 6.2 °C 1020.2 hPa 0.0 Km/h SW 4.6 mm  6.4 °C 15.1 °C
Monasterolo Torinese (TO) 25/03/17 14.15 14.6 °C 68 % 8.8 °C 1015.5 hPa 0.0 Km/h --- 0.0 mm  9.5 °C 14.8 °C
Moneglia loc. La Secca (GE) 25/03/17 00.04 14.8 °C 79 % 11.2 °C 1020.5 hPa 0.0 Km/h NE 0.0 mm  14.7 °C 14.8 °C
Mongrando San Michele (BI) 25/03/17 14.14 17.1 °C 73 % 12.2 °C 1019.0 hPa 3.2 Km/h ESE 0.0 mm  7.6 °C 17.2 °C
Montagna in Valtellina (SO) 25/03/17 14.10 21.9 °C 41 % 8.0 °C 1018.1 hPa 4.3 Km/h SW 0.0 mm  7.5 °C 21.9 °C
Montebello Vicentino loc. Selva (VI) 25/03/17 14.10 21.6 °C 48 % 10.1 °C 1020.0 hPa 6.3 Km/h ENE 0.0 mm  13.2 °C 21.9 °C
Montecchio Maggiore La Valle (VI) 25/03/17 14.07 23.6 °C 46 % 11.3 °C 1012.8 hPa 8.2 Km/h N 0.0 mm  9.0 °C 23.6 °C
Montecchio Maggiore Sant'Urbano (VI) 25/03/17 14.03 20.4 °C 49 % 9.3 °C 1023.6 hPa 5.6 Km/h NW 0.0 mm  11.4 °C 20.5 °C
Monteforte d'Alpone (VR) 25/03/17 14.15 23.2 °C 44 % 10.2 °C 1017.2 hPa 6.4 Km/h ENE 0.0 mm  9.6 °C 23.4 °C
Montelabbate (PU) 25/03/17 14.03 18.9 °C 56 % 9.9 °C 1019.2 hPa 6.8 Km/h N 0.0 mm  8.0 °C 19.7 °C
Montespertoli (FI) 25/03/17 14.05 23.7 °C 28 % 4.1 °C 1019.9 hPa 5.1 Km/h SE 0.0 mm  13.4 °C 23.7 °C
Montorso Vicentino (VI) 25/03/17 14.10 19.9 °C 53 % 10.1 °C 1019.1 hPa 0.0 Km/h SE 0.0 mm  12.5 °C 19.9 °C
Muzzano (BI) 25/03/17 14.00 15.9 °C 69 % 10.3 °C 1018.4 hPa 0.0 Km/h SE 0.0 mm  9.8 °C 16.4 °C
Nichelino (TO) 25/03/17 14.15 16.6 °C 61 % 9.0 °C 1018.4 hPa 8.0 Km/h NNW 0.5 mm  8.6 °C 16.6 °C
Novara (NO) 25/03/17 14.10 20.6 °C 62 % 13.1 °C 1018.5 hPa 1.6 Km/h SSE 0.0 mm  6.4 °C 20.9 °C
Onara extraurbana (PD) 25/03/17 14.11 18.5 °C 65 % 11.8 °C 1012.3 hPa 3.3 Km/h NE 0.0 mm  18.5 °C 18.5 °C
Oppeano (VR) 23/03/17 21.20 15.2 °C 73 % 10.4 °C 1016.7 hPa 0.0 Km/h NE 0.0 mm  11.1 °C 21.3 °C
Oristano (OR) 25/03/17 14.12 14.5 °C 82 % 11.5 °C 1019.9 hPa 0.0 Km/h WNW 4.4 mm  11.8 °C 17.6 °C
Orosei (NU) 25/03/17 14.16 14.9 °C 77 % 10.9 °C 1018.5 hPa 16.1 Km/h WNW 0.0 mm  13.7 °C 16.1 °C
Ortonovo (SP) 25/03/17 14.10 18.9 °C 58 % 10.5 °C 1017.9 hPa 15.4 Km/h W 0.0 mm  14.4 °C 21.3 °C
Orvieto (TR) 25/03/17 14.01 22.1 °C 45 % 9.6 °C 1017.0 hPa 1.5 Km/h WSW 0.0 mm  6.9 °C 23.3 °C
Ostana (CN) 25/03/17 13.40 4.9 °C 95 % 4.2 °C 1019.9 hPa 3.2 Km/h SE 44.2 mm  0.1 °C 10.3 °C
Ovaro loc. Liariis (UD) 25/03/17 14.05 20.6 °C 43 % 7.5 °C 1019.8 hPa 6.4 Km/h SE 0.0 mm  5.7 °C 20.9 °C
Pace del Mela (ME) 25/03/17 14.11 23.0 °C 35 % 6.7 °C 1020.7 hPa 5.7 Km/h NW 0.0 mm  13.4 °C 23.1 °C
Padergnone (TN) 25/03/17 14.00 20.8 °C 55 % 11.4 °C 1019.1 hPa 2.6 Km/h SE 0.0 mm  8.9 °C 21.3 °C
Parella (TO) 25/03/17 14.07 16.9 °C 65 % 10.3 °C 1017.5 hPa 4.8 Km/h SE 0.0 mm  8.3 °C 17.0 °C
Pastrengo (VR) 25/03/17 14.06 21.4 °C 50 % 10.6 °C 1019.9 hPa 0.0 Km/h N 0.0 mm  10.2 °C 21.4 °C
Pastrengo Cornè (VR) 25/03/17 14.15 21.3 °C 54 % 11.6 °C 1017.6 hPa 3.2 Km/h SSW 0.0 mm  10.6 °C 21.4 °C
Pecetto Torinese (TO) 25/03/17 14.07 16.7 °C 67 % 10.6 °C 1019.2 hPa 3.2 Km/h E 0.3 mm  9.0 °C 16.9 °C
Pedara (CT) 25/03/17 14.10 17.5 °C 61 % 9.9 °C 1018.5 hPa 3.5 Km/h SW 0.0 mm  8.6 °C 18.5 °C
Pedemonte (VR) 25/03/17 14.15 23.0 °C 52 % 12.6 °C 1018.4 hPa 5.0 Km/h SE 0.0 mm  8.4 °C 23.0 °C
Perugia San Mariano (PG) 25/03/17 14.00 22.3 °C 42 % 8.8 °C 1017.7 hPa 4.3 Km/h SSE 0.0 mm  8.2 °C 23.1 °C
Pila Valsesia (VC) 25/03/17 14.15 16.5 °C 52 % 6.6 °C 1017.1 hPa 0.0 Km/h E 0.2 mm  5.2 °C 16.9 °C
Piovà Massaia (AT) 25/03/17 14.10 16.9 °C 71 % 11.6 °C 1018.2 hPa 1.4 Km/h ENE 0.2 mm  7.8 °C 16.9 °C
Piraino contr. Fiumara (ME) 25/03/17 14.15 20.9 °C 50 % 10.1 °C 1020.1 hPa 6.0 Km/h SW 0.0 mm  10.6 °C 21.3 °C
Pisa zona I Passi (PI) 25/03/17 14.10 20.5 °C 46 % 8.5 °C 1019.3 hPa 0.0 Km/h SSW 0.0 mm  10.2 °C 22.7 °C
Pomezia (RM) 25/03/17 14.10 18.7 °C 61 % 11.0 °C 1019.1 hPa 1.6 Km/h SE 0.0 mm  13.3 °C 21.9 °C
Ponte San Nicolò (PD) 25/03/17 14.06 21.6 °C 47 % 9.8 °C 1018.8 hPa 6.4 Km/h ESE 0.0 mm  9.8 °C 21.9 °C
Ponte San Pellegrino (MO) 25/03/17 14.03 19.5 °C 57 % 10.7 °C 1009.4 hPa 19.4 Km/h ENE 0.0 mm  18.4 °C 19.5 °C
Pordenone (PN) 25/03/17 14.05 22.7 °C 40 % 8.4 °C 1019.8 hPa 1.6 Km/h NE 0.0 mm  11.1 °C 23.2 °C
Pozzolo Formigaro (AL) 25/03/17 14.15 15.4 °C 81 % 12.2 °C 1019.6 hPa 3.0 Km/h NNE 0.0 mm  6.5 °C 16.6 °C
Pray (BI) 25/03/17 14.10 17.8 °C 55 % 8.6 °C 1019.0 hPa 6.0 Km/h SSE 0.2 mm  5.2 °C 18.4 °C
Quinto di Valpantena (VR) 24/03/17 01.05 12.8 °C 88 % 10.9 °C 1020.3 hPa 0.0 Km/h NNW 0.0 mm  12.6 °C 12.8 °C
Reggello (FI) 25/03/17 14.10 21.2 °C 37 % 5.9 °C 1021.6 hPa 14.5 Km/h ONO 0.0 mm  10.0 °C 21.2 °C
Riccione (RN) 25/03/17 13.50 14.7 °C 86 % 12.3 °C 1020.4 hPa 6.4 Km/h E 0.0 mm  9.2 °C 15.3 °C
Rifugio Bocca di Selva (VR) 25/03/17 14.10 10.8 °C 73 % 6.2 °C 1018.1 hPa 29.0 Km/h SSE 0.0 mm  6.5 °C 11.0 °C
Rifugio Fiori del Baldo (VR) 25/03/17 14.16 6.9 °C 82 % 4.5 °C 1023.3 hPa 22.7 Km/h S 0.0 mm  5.2 °C 8.0 °C
Rifugio Primaneve (VR) 25/03/17 14.06 7.6 °C 78 % 4.0 °C 1020.5 hPa 22.5 Km/h SE 0.0 mm  5.7 °C 8.2 °C
Rimini (RN) 25/03/17 14.10 15.2 °C 80 % 11.8 °C 1020.1 hPa 4.8 Km/h ENE 0.0 mm  10.3 °C 18.2 °C
Rimini Zona Palas (RN) 25/03/17 14.02 15.7 °C 80 % 12.2 °C 1019.9 hPa 12.9 Km/h ENE 0.0 mm  10.9 °C 17.9 °C
Rivalba (TO) 25/03/17 14.10 17.1 °C 70 % 11.6 °C 1013.0 hPa 0.0 Km/h WNW 3.4 mm  7.3 °C 17.1 °C
Rivalta sul Mincio (MN) 25/03/17 14.16 21.5 °C 61 % 13.7 °C 1018.9 hPa 7.6 Km/h E 0.0 mm  10.1 °C 21.5 °C
Roma Prato della Signora (RM) 25/03/17 14.20 22.0 °C 64 % 14.9 °C 1018.8 hPa 0.0 Km/h W 0.0 mm  22.0 °C 24.1 °C
Romano d'Ezzelino Fellette (VI) 25/03/17 14.10 20.7 °C 47 % 9.0 °C 1021.9 hPa 8.9 Km/h S 0.0 mm  9.6 °C 20.9 °C
Ronciglione Centro (VT) 25/03/17 14.05 20.6 °C 38 % 5.8 °C 1020.0 hPa 5.8 Km/h SSW 0.0 mm  10.0 °C 20.7 °C
Ronciglione - Ponte Cuzzoli (VT) 25/03/17 14.15 19.7 °C 50 % 8.9 °C 1019.3 hPa 8.0 Km/h ESE 0.0 mm  7.8 °C 20.4 °C
Rosolina (RO) 22/03/17 20.00 12.4 °C 92 % 11.1 °C 1014.1 hPa 5.0 Km/h NE 0.0 mm  -573.3 °C 14.8 °C
S. Giovanni Ilarione2 (VR) 25/03/17 14.10 21.7 °C 49 % 10.5 °C 1018.4 hPa 4.8 Km/h ESE 0.0 mm  10.0 °C 21.8 °C
S. Giovanni Lupatoto (VR) 25/03/17 14.10 22.8 °C 54 % 13.0 °C 1018.9 hPa 0.0 Km/h SSE 0.0 mm  8.6 °C 22.9 °C
S. Giovanni Rotondo (FG) 25/03/17 14.15 18.7 °C 56 % 9.8 °C 1019.6 hPa 6.4 Km/h S 0.0 mm  9.9 °C 19.0 °C
S. Lorenzo di Vittorio Veneto (TV) 25/03/17 14.10 19.3 °C 53 % 9.5 °C 1020.1 hPa 3.2 Km/h S 0.0 mm  12.9 °C 19.4 °C
S. Lorenzo Nuovo (VT) 20/03/17 10.49 8.1 °C 83 % 5.4 °C 1013.0 hPa 0.0 Km/h SSE 0.0 mm  8.1 °C 8.1 °C
S. Maria Maddalena (RO) 25/03/17 14.05 21.8 °C 55 % 12.2 °C 1018.3 hPa 6.5 Km/h N 0.0 mm  9.6 °C 21.8 °C
S. Martino Lupari (PD) 25/03/17 14.10 22.2 °C 53 % 12.1 °C 894.9 hPa 1.6 Km/h NE 0.0 mm  9.2 °C 22.4 °C
S. Rocco di Villabalzana (VI) 25/03/17 14.13 21.4 °C 52 % 11.1 °C 1018.9 hPa 6.5 Km/h NE 0.0 mm  11.4 °C 21.4 °C
Sacile (PN) 25/03/17 14.20 22.2 °C 47 % 10.3 °C 1018.5 hPa 4.8 Km/h SE 0.0 mm  9.2 °C 22.2 °C
Salcedo (VI) 25/03/17 14.10 18.6 °C 51 % 8.3 °C 1018.8 hPa 7.0 Km/h ESE 0.0 mm  11.4 °C 19.0 °C
San Benedetto del Tronto (AP) 25/03/17 14.15 15.4 °C 77 % 11.4 °C 1018.0 hPa 9.3 Km/h N 0.0 mm  10.7 °C 17.2 °C
San Cataldo (CL) 25/03/17 13.51 17.7 °C 67 % 11.5 °C 1017.9 hPa 4.5 Km/h NNE 0.0 mm  11.5 °C 17.8 °C
San Giovanni la Punta Trappeto (CT) 25/03/17 14.15 17.4 °C 74 % 12.8 °C 1021.5 hPa 8.0 Km/h ESE 0.0 mm  9.2 °C 19.9 °C
San Nazario (VI) 25/03/17 14.16 22.8 °C 38 % 7.7 °C 1017.5 hPa 12.2 Km/h SE 0.0 mm  11.5 °C 22.8 °C
San Pietro in Cariano (VR) 25/03/17 14.09 21.6 °C 54 % 11.9 °C 1017.7 hPa 3.5 Km/h SW 0.0 mm  9.9 °C 21.7 °C
San Salvo3 (CH) 25/03/17 14.10 17.8 °C 61 % 10.2 °C 1017.7 hPa 0.0 Km/h NE 0.2 mm  9.2 °C 19.2 °C
San Vito (CA) 25/03/17 14.11 15.7 °C 63 % 8.7 °C 1014.2 hPa 0.0 Km/h NNW 0.0 mm  14.0 °C 24.4 °C
Santarcangelo di Romagna (RN) 25/03/17 14.11 18.8 °C 63 % 11.6 °C 1020.0 hPa 10.0 Km/h NNE 0.0 mm  10.0 °C 20.5 °C
Savelli (KR) 25/03/17 14.11 15.5 °C 63 % 8.5 °C 1019.9 hPa 2.4 Km/h SE 0.0 mm  10.4 °C 16.2 °C
Schio (VI) 25/03/17 14.05 21.6 °C 49 % 10.4 °C 1020.5 hPa 3.2 Km/h E 0.0 mm  10.4 °C 22.2 °C
Schio Monte Magré (VI) 25/03/17 14.11 19.3 °C 60 % 11.3 °C 0.0 hPa 6.4 Km/h SE 0.0 mm  10.6 °C 19.3 °C
Selva di Cadore Santa Fosca (BL) 25/03/17 14.11 15.8 °C 41 % 2.6 °C 1018.2 hPa 2.0 Km/h S 0.0 mm  3.6 °C 15.8 °C
Seremange Erzange (Moselle) 25/03/17 14.10 15.9 °C 39 % 2.0 °C 1022.4 hPa 19.5 Km/h NE 0.0 mm  4.4 °C 16.1 °C
Sinnai (CA) 25/03/17 14.05 14.3 °C 76 % 10.1 °C 1020.4 hPa 8.0 Km/h NW 0.0 mm  12.5 °C 16.0 °C
Soave Borgo Bassano (VR) 25/03/17 14.15 23.6 °C 46 % 11.3 °C 1018.9 hPa 2.0 Km/h N 0.0 mm  9.1 °C 23.6 °C
Soriso (NO) 25/03/17 14.10 18.7 °C 57 % 10.0 °C 1019.5 hPa 1.6 Km/h ESE 0.0 mm  8.8 °C 18.8 °C
Spoltore (PE) 25/03/17 14.22 18.9 °C 64 % 11.9 °C 1019.5 hPa 3.2 Km/h E 0.0 mm  9.6 °C 20.7 °C
Staranzano (GO) 25/03/17 14.20 21.6 °C 41 % 7.7 °C 1019.9 hPa 1.6 Km/h S 0.0 mm  10.2 °C 21.6 °C
Stiore - Monteveglio (BO) 25/03/17 14.11 20.4 °C 57 % 11.6 °C 1015.3 hPa 9.7 Km/h NE 0.0 mm  9.3 °C 20.4 °C
Taio Mollaro (TN) 25/03/17 14.10 22.4 °C 37 % 7.0 °C 1019.3 hPa 3.2 Km/h SW 0.0 mm  6.2 °C 22.2 °C
Taranto (TA) 25/03/17 14.15 20.5 °C 56 % 11.4 °C 1016.4 hPa 7.4 Km/h W 0.0 mm  11.8 °C 20.7 °C
Todi (PG) 25/03/17 14.15 22.0 °C 37 % 6.6 °C 1018.0 hPa 2.0 Km/h WNW 0.0 mm  11.2 °C 22.7 °C
Tombolo (PD) 25/03/17 14.11 21.9 °C 48 % 10.4 °C 1019.7 hPa 5.8 Km/h ENE 0.0 mm  9.1 °C 21.9 °C
Torino Regio Parco (TO) 25/03/17 14.13 16.4 °C 68 % 10.5 °C 1021.3 hPa 6.5 Km/h ENE 0.0 mm  9.4 °C 16.4 °C
Torre Annunziata (NA) 25/03/17 14.15 20.2 °C 44 % 7.5 °C 1020.4 hPa 0.0 Km/h WNW 0.0 mm  14.6 °C 20.5 °C
Torremaggiore (FG) 25/03/17 14.11 20.1 °C 56 % 11.0 °C 1018.9 hPa 4.3 Km/h NNE 0.0 mm  9.1 °C 20.7 °C
Torri (FI) 24/03/17 21.15 14.8 °C 70 % 9.4 °C 1021.2 hPa 3.2 Km/h WNW 0.0 mm  7.3 °C 22.2 °C
Torrita di Siena (SI) 21/03/17 23.15 11.3 °C 80 % 8.0 °C 1012.7 hPa 3.2 Km/h WSW 0.0 mm  8.5 °C 21.3 °C
Trambileno (TN) 25/03/17 14.17 17.4 °C 62 % 10.0 °C 1017.5 hPa 0.0 Km/h N 0.3 mm  5.5 °C 17.4 °C
Tregnago (VR) 20/03/17 20.20 11.4 °C 80 % 8.1 °C 1012.4 hPa 0.0 Km/h NNW 0.0 mm  8.4 °C 15.2 °C
Tregnago Loc. Centro (VR) 25/03/17 14.15 18.6 °C 56 % 9.6 °C 1013.0 hPa 11.3 Km/h SSE 0.0 mm  12.5 °C 19.1 °C
Trento (TN) 25/03/17 14.11 22.2 °C 44 % 9.3 °C 1016.8 hPa 0.0 Km/h ENE 0.0 mm  10.4 °C 22.4 °C
Treviso (TV) 25/03/17 14.11 21.8 °C 37 % 6.5 °C 1019.7 hPa 5.0 Km/h NE 0.0 mm  9.5 °C 21.8 °C
Tuscania (VT) 25/03/17 09.45 18.9 °C 60 % 11.0 °C 1021.7 hPa 1.7 Km/h E 0.0 mm  10.3 °C 18.9 °C
Val Lastaro (VI) 19/03/17 20.59 2.4 °C 94 % 1.7 °C 1015.2 hPa 0.0 Km/h E 0.0 mm  -0.1 °C 10.7 °C
Valdobbiadene San Pietro di Barbozza (TV) 25/03/17 14.15 19.1 °C 50 % 8.4 °C 1018.8 hPa 9.7 Km/h SSE 0.0 mm  13.9 °C 19.2 °C
Valentano (VT) 25/03/17 14.10 16.4 °C 59 % 8.3 °C 1018.0 hPa 14.5 Km/h SSW 0.0 mm  11.8 °C 18.3 °C
Valenza (AL) 25/03/17 14.19 15.2 °C 80 % 11.7 °C 1018.2 hPa 12.9 Km/h ENE 0.0 mm  7.8 °C 15.3 °C
Valli del Pasubio loc. Gisbenti (VI) 25/03/17 14.10 19.4 °C 17 % -6.3 °C 976.0 hPa 6.2 Km/h ESE 0.0 mm  7.0 °C 19.6 °C
Varese Ligure (SP) 25/03/17 14.10 20.9 °C 10 % -11.8 °C 1030.3 hPa 12.0 Km/h S 0.0 mm  9.8 °C 21.4 °C
Vasto (CH) 25/03/17 14.11 17.3 °C 10 % -14.6 °C 1018.8 hPa 6.5 Km/h NE 0.0 mm  8.9 °C 18.9 °C
Vattaro fraz. Pian dei Pradi (TN) 25/03/17 14.09 17.8 °C 52 % 7.8 °C 1019.6 hPa 0.0 Km/h SSW 0.0 mm  6.4 °C 18.1 °C
Verona Bgo Venezia (iz3sly) (VR) 25/03/17 14.21 21.9 °C 55 % 12.5 °C 1017.5 hPa 0.0 Km/h SSW 0.0 mm  8.6 °C 22.0 °C
Vestenanova (VR) 25/03/17 14.10 18.3 °C 53 % 8.6 °C 1029.0 hPa 5.0 Km/h SSE 0.0 mm  12.0 °C 18.4 °C
Vicenza Campedello (VI) 25/03/17 14.15 22.8 °C 50 % 11.7 °C 1020.1 hPa 0.0 Km/h SE 0.0 mm  7.0 °C 22.8 °C
Vicenza Moracchino (VI) 25/03/17 14.11 20.6 °C 54 % 11.0 °C 1018.1 hPa 14.5 Km/h NE 0.0 mm  8.6 °C 21.3 °C
Vicenza Pecori Giraldi (VI) 25/03/17 14.11 23.7 °C 55 % 14.1 °C 1007.4 hPa 3.7 Km/h E 0.0 mm  10.3 °C 23.7 °C
Vicenza S. Lazzaro (VI) 25/03/17 14.11 22.3 °C 48 % 10.6 °C 1018.3 hPa 0.0 Km/h ESE 0.0 mm  10.2 °C 22.3 °C
Vicenza San Gaetano (VI) 25/03/17 14.11 22.6 °C 53 % 12.5 °C 1019.0 hPa 1.1 Km/h SE 0.0 mm  9.8 °C 22.6 °C
Vidor (TV) 25/03/17 14.16 21.9 °C 43 % 8.7 °C 1018.2 hPa 6.7 Km/h E 0.0 mm  7.9 °C 22.5 °C
Vieste (FG) 25/03/17 14.11 15.8 °C 83 % 12.9 °C 1020.9 hPa 10.0 Km/h N 0.0 mm  9.3 °C 15.9 °C
Vigasio (VR) 25/03/17 14.10 22.4 °C 51 % 11.8 °C 1017.3 hPa 6.4 Km/h ESE 0.0 mm  9.3 °C 22.5 °C
Vigevano (PV) 24/03/17 23.15 11.1 °C 98 % 10.8 °C 1000.6 hPa 0.0 Km/h N 4.2 mm  10.5 °C 14.8 °C
Viozene Toria (CN) 25/03/17 14.10 7.2 °C 82 % 4.3 °C 1016.8 hPa 3.0 Km/h SW 0.9 mm  5.4 °C 10.1 °C
Viterbo Santa Barbara (VT) 25/03/17 14.19 20.8 °C 48 % 9.4 °C 1018.2 hPa 0.0 Km/h N 0.0 mm  10.6 °C 21.2 °C
Vitorchiano Pallone (VT) 25/03/17 14.10 21.9 °C 47 % 10.1 °C 1017.6 hPa 4.8 Km/h N 0.0 mm  11.7 °C 22.6 °C
Vittorio Veneto (TV) 25/03/17 14.15 21.2 °C 46 % 9.1 °C 1018.8 hPa 1.6 Km/h SSE 0.0 mm  13.6 °C 21.4 °C
Vittorio Veneto Parco Fenderl (TV) 25/03/17 14.20 22.3 °C 46 % 10.2 °C 1019.9 hPa 1.6 Km/h S 0.0 mm  12.8 °C 22.3 °C
Volpago del Montello (TV) 25/03/17 14.15 20.6 °C 49 % 9.5 °C 1019.1 hPa 0.0 Km/h --- 0.0 mm  9.6 °C 20.6 °C
 
(*) = Precipitazioni nelle ultime 24h.
Dati non aggiornati nell'ultima ora.
   
In collaborazione con:
 
Top! Top!